sensor_id;sensor_type;location;lat;lon;timestamp;temperature;humidity
3281;DHT22;1652;51.31805600;6.20194400;2024-03-17T00:00:04;4.90;99.90
3281;DHT22;1652;51.31805600;6.20194400;2024-03-17T00:02:30;4.80;99.90
3281;DHT22;1652;51.31805600;6.20194400;2024-03-17T00:04:56;4.90;99.90
3281;DHT22;1652;51.31805600;6.20194400;2024-03-17T00:07:22;4.90;99.90
3281;DHT22;1652;51.31805600;6.20194400;2024-03-17T00:09:48;4.80;99.90
3281;DHT22;1652;51.31805600;6.20194400;2024-03-17T00:12:14;4.80;99.90
3281;DHT22;1652;51.31805600;6.20194400;2024-03-17T00:14:40;4.80;99.90
3281;DHT22;1652;51.31805600;6.20194400;2024-03-17T00:17:08;4.70;99.90
3281;DHT22;1652;51.31805600;6.20194400;2024-03-17T00:19:34;4.80;99.90
3281;DHT22;1652;51.31805600;6.20194400;2024-03-17T00:22:00;4.90;99.90
3281;DHT22;1652;51.31805600;6.20194400;2024-03-17T00:24:26;4.90;99.90
3281;DHT22;1652;51.31805600;6.20194400;2024-03-17T00:26:52;4.90;99.90
3281;DHT22;1652;51.31805600;6.20194400;2024-03-17T00:29:19;5.00;99.90
3281;DHT22;1652;51.31805600;6.20194400;2024-03-17T00:31:45;5.10;99.90
3281;DHT22;1652;51.31805600;6.20194400;2024-03-17T00:34:10;5.30;99.90
3281;DHT22;1652;51.31805600;6.20194400;2024-03-17T00:36:36;5.30;99.90
3281;DHT22;1652;51.31805600;6.20194400;2024-03-17T00:39:02;5.40;99.90
3281;DHT22;1652;51.31805600;6.20194400;2024-03-17T00:41:29;5.30;99.90
3281;DHT22;1652;51.31805600;6.20194400;2024-03-17T00:43:55;5.30;99.90
3281;DHT22;1652;51.31805600;6.20194400;2024-03-17T00:46:21;5.40;99.90
3281;DHT22;1652;51.31805600;6.20194400;2024-03-17T00:48:48;5.30;99.90
3281;DHT22;1652;51.31805600;6.20194400;2024-03-17T00:51:15;5.40;99.90
3281;DHT22;1652;51.31805600;6.20194400;2024-03-17T00:53:41;5.40;99.90
3281;DHT22;1652;51.31805600;6.20194400;2024-03-17T00:56:06;5.40;99.90
3281;DHT22;1652;51.31805600;6.20194400;2024-03-17T00:58:32;5.40;99.90
3281;DHT22;1652;51.31805600;6.20194400;2024-03-17T01:00:58;5.40;99.90
3281;DHT22;1652;51.31805600;6.20194400;2024-03-17T01:03:24;5.30;99.90
3281;DHT22;1652;51.31805600;6.20194400;2024-03-17T01:05:50;5.30;99.90
3281;DHT22;1652;51.31805600;6.20194400;2024-03-17T01:08:21;5.40;99.90
3281;DHT22;1652;51.31805600;6.20194400;2024-03-17T01:10:48;5.30;99.90
3281;DHT22;1652;51.31805600;6.20194400;2024-03-17T01:13:17;5.20;99.90
3281;DHT22;1652;51.31805600;6.20194400;2024-03-17T01:15:43;5.20;99.90
3281;DHT22;1652;51.31805600;6.20194400;2024-03-17T01:18:09;5.20;99.90
3281;DHT22;1652;51.31805600;6.20194400;2024-03-17T01:20:36;5.20;99.90
3281;DHT22;1652;51.31805600;6.20194400;2024-03-17T01:23:04;5.00;99.90
3281;DHT22;1652;51.31805600;6.20194400;2024-03-17T01:25:30;4.90;99.90
3281;DHT22;1652;51.31805600;6.20194400;2024-03-17T01:27:58;4.90;99.90
3281;DHT22;1652;51.31805600;6.20194400;2024-03-17T01:30:24;4.80;99.90
3281;DHT22;1652;51.31805600;6.20194400;2024-03-17T01:32:51;4.70;1.00
3281;DHT22;1652;51.31805600;6.20194400;2024-03-17T01:35:17;4.60;1.00
3281;DHT22;1652;51.31805600;6.20194400;2024-03-17T01:37:43;4.60;1.00
3281;DHT22;1652;51.31805600;6.20194400;2024-03-17T01:40:09;4.60;1.00
3281;DHT22;1652;51.31805600;6.20194400;2024-03-17T01:42:37;4.50;1.00
3281;DHT22;1652;51.31805600;6.20194400;2024-03-17T01:45:31;4.50;1.00
3281;DHT22;1652;51.31805600;6.20194400;2024-03-17T01:47:59;4.50;1.00
3281;DHT22;1652;51.31805600;6.20194400;2024-03-17T01:50:32;4.40;1.00
3281;DHT22;1652;51.31805600;6.20194400;2024-03-17T01:53:01;4.40;1.00
3281;DHT22;1652;51.31805600;6.20194400;2024-03-17T01:55:28;4.30;1.00
3281;DHT22;1652;51.31805600;6.20194400;2024-03-17T01:57:54;4.40;1.00
3281;DHT22;1652;51.31805600;6.20194400;2024-03-17T02:00:20;4.40;1.00
3281;DHT22;1652;51.31805600;6.20194400;2024-03-17T02:02:47;4.40;1.00
3281;DHT22;1652;51.31805600;6.20194400;2024-03-17T02:05:13;4.30;1.00
3281;DHT22;1652;51.31805600;6.20194400;2024-03-17T02:07:39;4.20;1.00
3281;DHT22;1652;51.31805600;6.20194400;2024-03-17T02:10:06;4.20;1.00
3281;DHT22;1652;51.31805600;6.20194400;2024-03-17T02:12:34;4.10;1.00
3281;DHT22;1652;51.31805600;6.20194400;2024-03-17T02:15:01;4.20;1.00
3281;DHT22;1652;51.31805600;6.20194400;2024-03-17T02:17:31;4.30;1.00
3281;DHT22;1652;51.31805600;6.20194400;2024-03-17T02:19:57;4.40;1.00
3281;DHT22;1652;51.31805600;6.20194400;2024-03-17T02:22:26;4.30;1.00
3281;DHT22;1652;51.31805600;6.20194400;2024-03-17T02:24:53;4.20;1.00
3281;DHT22;1652;51.31805600;6.20194400;2024-03-17T02:27:19;4.20;1.00
3281;DHT22;1652;51.31805600;6.20194400;2024-03-17T02:29:45;4.20;1.00
3281;DHT22;1652;51.31805600;6.20194400;2024-03-17T02:32:11;4.20;1.00
3281;DHT22;1652;51.31805600;6.20194400;2024-03-17T02:34:38;4.10;1.00
3281;DHT22;1652;51.31805600;6.20194400;2024-03-17T02:37:06;4.10;1.00
3281;DHT22;1652;51.31805600;6.20194400;2024-03-17T02:39:35;4.10;1.00
3281;DHT22;1652;51.31805600;6.20194400;2024-03-17T02:42:08;4.10;1.00
3281;DHT22;1652;51.31805600;6.20194400;2024-03-17T02:44:35;4.20;1.00
3281;DHT22;1652;51.31805600;6.20194400;2024-03-17T02:47:02;4.20;1.00
3281;DHT22;1652;51.31805600;6.20194400;2024-03-17T02:49:32;4.10;1.00
3281;DHT22;1652;51.31805600;6.20194400;2024-03-17T02:52:10;4.10;1.00
3281;DHT22;1652;51.31805600;6.20194400;2024-03-17T02:54:37;4.20;19.30
3281;DHT22;1652;51.31805600;6.20194400;2024-03-17T02:57:05;4.20;1.90
3281;DHT22;1652;51.31805600;6.20194400;2024-03-17T02:59:32;4.20;27.40
3281;DHT22;1652;51.31805600;6.20194400;2024-03-17T03:01:59;4.30;46.30
3281;DHT22;1652;51.31805600;6.20194400;2024-03-17T03:04:25;4.20;32.00
3281;DHT22;1652;51.31805600;6.20194400;2024-03-17T03:06:51;4.20;37.00
3281;DHT22;1652;51.31805600;6.20194400;2024-03-17T03:09:17;4.30;83.60
3281;DHT22;1652;51.31805600;6.20194400;2024-03-17T03:11:47;4.30;95.00
3281;DHT22;1652;51.31805600;6.20194400;2024-03-17T03:14:13;4.40;99.90
3281;DHT22;1652;51.31805600;6.20194400;2024-03-17T03:16:39;4.50;99.90
3281;DHT22;1652;51.31805600;6.20194400;2024-03-17T03:19:04;4.60;87.70
3281;DHT22;1652;51.31805600;6.20194400;2024-03-17T03:21:33;4.70;92.40
3281;DHT22;1652;51.31805600;6.20194400;2024-03-17T03:23:59;4.80;93.00
3281;DHT22;1652;51.31805600;6.20194400;2024-03-17T03:26:24;5.00;89.70
3281;DHT22;1652;51.31805600;6.20194400;2024-03-17T03:28:50;5.10;88.90
3281;DHT22;1652;51.31805600;6.20194400;2024-03-17T03:31:17;5.20;39.90
3281;DHT22;1652;51.31805600;6.20194400;2024-03-17T03:33:43;5.40;30.80
3281;DHT22;1652;51.31805600;6.20194400;2024-03-17T03:36:10;5.40;10.60
3281;DHT22;1652;51.31805600;6.20194400;2024-03-17T03:38:36;5.50;1.00
3281;DHT22;1652;51.31805600;6.20194400;2024-03-17T03:41:10;5.60;1.00
3281;DHT22;1652;51.31805600;6.20194400;2024-03-17T03:43:36;5.70;1.00
3281;DHT22;1652;51.31805600;6.20194400;2024-03-17T03:46:02;5.60;1.00
3281;DHT22;1652;51.31805600;6.20194400;2024-03-17T03:48:29;5.70;1.00
3281;DHT22;1652;51.31805600;6.20194400;2024-03-17T03:50:55;5.70;1.00
3281;DHT22;1652;51.31805600;6.20194400;2024-03-17T03:53:21;5.80;1.00
3281;DHT22;1652;51.31805600;6.20194400;2024-03-17T03:55:48;5.80;1.00
3281;DHT22;1652;51.31805600;6.20194400;2024-03-17T03:58:14;5.90;1.00
3281;DHT22;1652;51.31805600;6.20194400;2024-03-17T04:00:41;5.90;1.00
3281;DHT22;1652;51.31805600;6.20194400;2024-03-17T04:03:06;5.90;1.00
3281;DHT22;1652;51.31805600;6.20194400;2024-03-17T04:05:33;5.90;1.00
3281;DHT22;1652;51.31805600;6.20194400;2024-03-17T04:08:00;5.80;1.00
3281;DHT22;1652;51.31805600;6.20194400;2024-03-17T04:10:26;5.90;1.00
3281;DHT22;1652;51.31805600;6.20194400;2024-03-17T04:12:53;5.90;1.00
3281;DHT22;1652;51.31805600;6.20194400;2024-03-17T04:15:19;5.90;1.00
3281;DHT22;1652;51.31805600;6.20194400;2024-03-17T04:17:45;5.90;1.00
3281;DHT22;1652;51.31805600;6.20194400;2024-03-17T04:20:11;6.00;1.00
3281;DHT22;1652;51.31805600;6.20194400;2024-03-17T04:22:40;6.00;1.00
3281;DHT22;1652;51.31805600;6.20194400;2024-03-17T04:25:06;6.00;1.00
3281;DHT22;1652;51.31805600;6.20194400;2024-03-17T04:27:32;6.00;1.00
3281;DHT22;1652;51.31805600;6.20194400;2024-03-17T04:29:59;6.00;1.00
3281;DHT22;1652;51.31805600;6.20194400;2024-03-17T04:32:26;5.90;1.00
3281;DHT22;1652;51.31805600;6.20194400;2024-03-17T04:34:52;6.00;1.00
3281;DHT22;1652;51.31805600;6.20194400;2024-03-17T04:37:18;6.00;1.00
3281;DHT22;1652;51.31805600;6.20194400;2024-03-17T04:39:45;6.00;1.00
3281;DHT22;1652;51.31805600;6.20194400;2024-03-17T04:42:13;5.90;1.00
3281;DHT22;1652;51.31805600;6.20194400;2024-03-17T04:44:44;5.70;99.90
3281;DHT22;1652;51.31805600;6.20194400;2024-03-17T04:47:10;5.60;1.00
3281;DHT22;1652;51.31805600;6.20194400;2024-03-17T04:49:37;5.50;1.00
3281;DHT22;1652;51.31805600;6.20194400;2024-03-17T04:52:03;5.40;1.00
3281;DHT22;1652;51.31805600;6.20194400;2024-03-17T04:54:34;5.40;1.00
3281;DHT22;1652;51.31805600;6.20194400;2024-03-17T04:57:00;5.30;1.00
3281;DHT22;1652;51.31805600;6.20194400;2024-03-17T04:59:26;5.20;1.00
3281;DHT22;1652;51.31805600;6.20194400;2024-03-17T05:01:53;5.10;1.00
3281;DHT22;1652;51.31805600;6.20194400;2024-03-17T05:04:19;5.10;1.00
3281;DHT22;1652;51.31805600;6.20194400;2024-03-17T05:06:45;5.10;1.00
3281;DHT22;1652;51.31805600;6.20194400;2024-03-17T05:09:18;5.00;1.00
3281;DHT22;1652;51.31805600;6.20194400;2024-03-17T05:11:45;5.10;1.00
3281;DHT22;1652;51.31805600;6.20194400;2024-03-17T05:14:11;5.00;1.00
3281;DHT22;1652;51.31805600;6.20194400;2024-03-17T05:16:37;5.00;1.00
3281;DHT22;1652;51.31805600;6.20194400;2024-03-17T05:19:03;5.00;1.00
3281;DHT22;1652;51.31805600;6.20194400;2024-03-17T05:21:29;5.00;1.00
3281;DHT22;1652;51.31805600;6.20194400;2024-03-17T05:23:56;5.00;1.00
3281;DHT22;1652;51.31805600;6.20194400;2024-03-17T05:26:24;5.00;1.00
3281;DHT22;1652;51.31805600;6.20194400;2024-03-17T05:28:50;5.00;1.00
3281;DHT22;1652;51.31805600;6.20194400;2024-03-17T05:31:16;5.00;1.00
3281;DHT22;1652;51.31805600;6.20194400;2024-03-17T05:33:44;5.00;1.00
3281;DHT22;1652;51.31805600;6.20194400;2024-03-17T05:36:12;4.90;1.00
3281;DHT22;1652;51.31805600;6.20194400;2024-03-17T05:38:40;5.00;1.00
3281;DHT22;1652;51.31805600;6.20194400;2024-03-17T05:41:07;5.10;1.00
3281;DHT22;1652;51.31805600;6.20194400;2024-03-17T05:43:36;5.10;1.00
3281;DHT22;1652;51.31805600;6.20194400;2024-03-17T05:46:02;5.00;1.00
3281;DHT22;1652;51.31805600;6.20194400;2024-03-17T05:48:29;4.80;1.00
3281;DHT22;1652;51.31805600;6.20194400;2024-03-17T05:50:55;4.70;1.00
3281;DHT22;1652;51.31805600;6.20194400;2024-03-17T05:53:22;4.70;1.00
3281;DHT22;1652;51.31805600;6.20194400;2024-03-17T05:55:50;4.70;1.00
3281;DHT22;1652;51.31805600;6.20194400;2024-03-17T05:58:16;4.70;1.00
3281;DHT22;1652;51.31805600;6.20194400;2024-03-17T06:00:42;4.80;1.00
3281;DHT22;1652;51.31805600;6.20194400;2024-03-17T06:03:09;4.80;1.00
3281;DHT22;1652;51.31805600;6.20194400;2024-03-17T06:05:37;5.00;1.00
3281;DHT22;1652;51.31805600;6.20194400;2024-03-17T06:08:05;5.00;1.00
3281;DHT22;1652;51.31805600;6.20194400;2024-03-17T06:10:32;5.00;1.00
3281;DHT22;1652;51.31805600;6.20194400;2024-03-17T06:12:59;5.10;1.00
3281;DHT22;1652;51.31805600;6.20194400;2024-03-17T06:15:25;5.20;1.00
3281;DHT22;1652;51.31805600;6.20194400;2024-03-17T06:17:52;5.40;1.00
3281;DHT22;1652;51.31805600;6.20194400;2024-03-17T06:20:19;5.40;1.00
3281;DHT22;1652;51.31805600;6.20194400;2024-03-17T06:22:45;5.70;1.00
3281;DHT22;1652;51.31805600;6.20194400;2024-03-17T06:25:12;6.10;99.90
3281;DHT22;1652;51.31805600;6.20194400;2024-03-17T06:27:38;6.40;99.90
3281;DHT22;1652;51.31805600;6.20194400;2024-03-17T06:30:04;6.50;99.90
3281;DHT22;1652;51.31805600;6.20194400;2024-03-17T06:32:30;6.70;99.90
3281;DHT22;1652;51.31805600;6.20194400;2024-03-17T06:35:01;6.90;56.90
3281;DHT22;1652;51.31805600;6.20194400;2024-03-17T06:37:27;7.40;77.60
3281;DHT22;1652;51.31805600;6.20194400;2024-03-17T06:39:52;8.00;1.00
3281;DHT22;1652;51.31805600;6.20194400;2024-03-17T06:42:19;8.40;1.00
3281;DHT22;1652;51.31805600;6.20194400;2024-03-17T06:44:45;8.80;1.00
3281;DHT22;1652;51.31805600;6.20194400;2024-03-17T06:47:12;8.90;1.00
3281;DHT22;1652;51.31805600;6.20194400;2024-03-17T06:49:38;9.10;99.90
3281;DHT22;1652;51.31805600;6.20194400;2024-03-17T06:52:04;9.70;99.90
3281;DHT22;1652;51.31805600;6.20194400;2024-03-17T06:54:30;10.60;99.90
3281;DHT22;1652;51.31805600;6.20194400;2024-03-17T06:56:57;10.90;99.90
3281;DHT22;1652;51.31805600;6.20194400;2024-03-17T06:59:23;10.20;99.90
3281;DHT22;1652;51.31805600;6.20194400;2024-03-17T07:01:49;9.40;99.90
3281;DHT22;1652;51.31805600;6.20194400;2024-03-17T07:04:16;8.80;99.90
3281;DHT22;1652;51.31805600;6.20194400;2024-03-17T07:06:46;8.30;99.90
3281;DHT22;1652;51.31805600;6.20194400;2024-03-17T07:09:12;7.90;1.00
3281;DHT22;1652;51.31805600;6.20194400;2024-03-17T07:11:38;7.90;1.00
3281;DHT22;1652;51.31805600;6.20194400;2024-03-17T07:14:06;9.00;1.00
3281;DHT22;1652;51.31805600;6.20194400;2024-03-17T07:16:32;10.10;1.00
3281;DHT22;1652;51.31805600;6.20194400;2024-03-17T07:19:04;11.40;99.90
3281;DHT22;1652;51.31805600;6.20194400;2024-03-17T07:21:30;12.40;1.00
3281;DHT22;1652;51.31805600;6.20194400;2024-03-17T07:23:57;13.00;99.90
3281;DHT22;1652;51.31805600;6.20194400;2024-03-17T07:26:25;13.70;99.90
3281;DHT22;1652;51.31805600;6.20194400;2024-03-17T07:28:51;14.10;99.90
3281;DHT22;1652;51.31805600;6.20194400;2024-03-17T07:31:16;14.00;99.90
3281;DHT22;1652;51.31805600;6.20194400;2024-03-17T07:33:42;14.30;99.90
3281;DHT22;1652;51.31805600;6.20194400;2024-03-17T07:36:08;14.00;99.90
3281;DHT22;1652;51.31805600;6.20194400;2024-03-17T07:38:35;13.30;99.90
3281;DHT22;1652;51.31805600;6.20194400;2024-03-17T07:41:07;12.70;99.90
3281;DHT22;1652;51.31805600;6.20194400;2024-03-17T07:43:34;12.60;99.90
3281;DHT22;1652;51.31805600;6.20194400;2024-03-17T07:48:32;12.20;99.90
3281;DHT22;1652;51.31805600;6.20194400;2024-03-17T07:51:00;12.00;99.90
3281;DHT22;1652;51.31805600;6.20194400;2024-03-17T07:53:36;11.60;99.90
3281;DHT22;1652;51.31805600;6.20194400;2024-03-17T07:56:04;11.00;99.90
3281;DHT22;1652;51.31805600;6.20194400;2024-03-17T07:58:31;10.80;99.90
3281;DHT22;1652;51.31805600;6.20194400;2024-03-17T08:03:26;10.90;99.90
3281;DHT22;1652;51.31805600;6.20194400;2024-03-17T08:05:52;11.30;88.50
3281;DHT22;1652;51.31805600;6.20194400;2024-03-17T08:08:18;11.80;1.00
3281;DHT22;1652;51.31805600;6.20194400;2024-03-17T08:10:44;12.40;1.00
3281;DHT22;1652;51.31805600;6.20194400;2024-03-17T08:13:10;13.00;1.00
3281;DHT22;1652;51.31805600;6.20194400;2024-03-17T08:15:36;13.60;1.00
3281;DHT22;1652;51.31805600;6.20194400;2024-03-17T08:18:03;13.80;1.00
3281;DHT22;1652;51.31805600;6.20194400;2024-03-17T08:20:29;14.10;1.00
3281;DHT22;1652;51.31805600;6.20194400;2024-03-17T08:22:55;13.70;1.00
3281;DHT22;1652;51.31805600;6.20194400;2024-03-17T08:25:21;13.20;1.00
3281;DHT22;1652;51.31805600;6.20194400;2024-03-17T08:27:47;12.80;1.00
3281;DHT22;1652;51.31805600;6.20194400;2024-03-17T08:30:13;12.60;1.00
3281;DHT22;1652;51.31805600;6.20194400;2024-03-17T08:32:39;12.30;1.00
3281;DHT22;1652;51.31805600;6.20194400;2024-03-17T08:35:06;12.00;1.00
3281;DHT22;1652;51.31805600;6.20194400;2024-03-17T08:37:32;11.80;1.00
3281;DHT22;1652;51.31805600;6.20194400;2024-03-17T08:39:58;11.50;1.00
3281;DHT22;1652;51.31805600;6.20194400;2024-03-17T08:42:24;11.50;1.00
3281;DHT22;1652;51.31805600;6.20194400;2024-03-17T08:44:49;11.70;74.50
3281;DHT22;1652;51.31805600;6.20194400;2024-03-17T08:47:15;11.80;1.00
3281;DHT22;1652;51.31805600;6.20194400;2024-03-17T08:49:41;11.90;1.00
3281;DHT22;1652;51.31805600;6.20194400;2024-03-17T08:52:07;11.90;1.00
3281;DHT22;1652;51.31805600;6.20194400;2024-03-17T08:54:33;11.80;1.00
3281;DHT22;1652;51.31805600;6.20194400;2024-03-17T08:56:58;11.90;1.00
3281;DHT22;1652;51.31805600;6.20194400;2024-03-17T08:59:24;11.60;1.00
3281;DHT22;1652;51.31805600;6.20194400;2024-03-17T09:01:50;11.50;1.00
3281;DHT22;1652;51.31805600;6.20194400;2024-03-17T09:04:16;11.40;1.00
3281;DHT22;1652;51.31805600;6.20194400;2024-03-17T09:06:41;11.60;1.00
3281;DHT22;1652;51.31805600;6.20194400;2024-03-17T09:09:07;11.70;1.00
3281;DHT22;1652;51.31805600;6.20194400;2024-03-17T09:11:33;11.90;1.00
3281;DHT22;1652;51.31805600;6.20194400;2024-03-17T09:13:59;12.10;1.00
3281;DHT22;1652;51.31805600;6.20194400;2024-03-17T09:16:26;12.10;1.00
3281;DHT22;1652;51.31805600;6.20194400;2024-03-17T09:18:54;12.00;1.00
3281;DHT22;1652;51.31805600;6.20194400;2024-03-17T09:21:19;12.10;1.00
3281;DHT22;1652;51.31805600;6.20194400;2024-03-17T09:23:45;12.00;1.00
3281;DHT22;1652;51.31805600;6.20194400;2024-03-17T09:26:12;11.90;1.00
3281;DHT22;1652;51.31805600;6.20194400;2024-03-17T09:28:39;12.00;1.00
3281;DHT22;1652;51.31805600;6.20194400;2024-03-17T09:31:05;12.00;1.00
3281;DHT22;1652;51.31805600;6.20194400;2024-03-17T09:33:33;11.90;1.00
3281;DHT22;1652;51.31805600;6.20194400;2024-03-17T09:36:04;12.00;1.00
3281;DHT22;1652;51.31805600;6.20194400;2024-03-17T09:38:35;12.00;1.00
3281;DHT22;1652;51.31805600;6.20194400;2024-03-17T09:41:01;12.00;1.00
3281;DHT22;1652;51.31805600;6.20194400;2024-03-17T09:43:32;12.00;1.00
3281;DHT22;1652;51.31805600;6.20194400;2024-03-17T09:45:59;12.00;1.00
3281;DHT22;1652;51.31805600;6.20194400;2024-03-17T09:48:25;12.30;1.00
3281;DHT22;1652;51.31805600;6.20194400;2024-03-17T09:50:57;12.40;1.00
3281;DHT22;1652;51.31805600;6.20194400;2024-03-17T09:53:26;12.50;1.00
3281;DHT22;1652;51.31805600;6.20194400;2024-03-17T09:56:13;12.60;1.00
3281;DHT22;1652;51.31805600;6.20194400;2024-03-17T09:58:40;12.70;1.00
3281;DHT22;1652;51.31805600;6.20194400;2024-03-17T10:01:06;12.80;1.00
3281;DHT22;1652;51.31805600;6.20194400;2024-03-17T10:03:42;12.90;1.00
3281;DHT22;1652;51.31805600;6.20194400;2024-03-17T10:06:09;13.00;1.00
3281;DHT22;1652;51.31805600;6.20194400;2024-03-17T10:08:51;13.10;1.00
3281;DHT22;1652;51.31805600;6.20194400;2024-03-17T10:11:22;13.30;1.00
3281;DHT22;1652;51.31805600;6.20194400;2024-03-17T10:14:03;13.40;1.00
3281;DHT22;1652;51.31805600;6.20194400;2024-03-17T10:16:31;13.50;1.00
3281;DHT22;1652;51.31805600;6.20194400;2024-03-17T10:21:43;13.40;1.00
3281;DHT22;1652;51.31805600;6.20194400;2024-03-17T10:24:24;13.40;1.00
3281;DHT22;1652;51.31805600;6.20194400;2024-03-17T10:26:52;13.10;1.00
3281;DHT22;1652;51.31805600;6.20194400;2024-03-17T10:29:24;13.20;1.00
3281;DHT22;1652;51.31805600;6.20194400;2024-03-17T10:31:55;13.30;1.00
3281;DHT22;1652;51.31805600;6.20194400;2024-03-17T10:34:21;13.30;1.00
3281;DHT22;1652;51.31805600;6.20194400;2024-03-17T10:39:36;13.60;1.00
3281;DHT22;1652;51.31805600;6.20194400;2024-03-17T10:42:04;13.70;1.00
3281;DHT22;1652;51.31805600;6.20194400;2024-03-17T10:44:41;13.80;1.00
3281;DHT22;1652;51.31805600;6.20194400;2024-03-17T10:47:24;13.80;1.00
3281;DHT22;1652;51.31805600;6.20194400;2024-03-17T10:49:51;13.80;1.00
3281;DHT22;1652;51.31805600;6.20194400;2024-03-17T10:52:18;14.10;1.00
3281;DHT22;1652;51.31805600;6.20194400;2024-03-17T10:54:52;14.30;1.00
3281;DHT22;1652;51.31805600;6.20194400;2024-03-17T11:00:00;14.50;1.00
3281;DHT22;1652;51.31805600;6.20194400;2024-03-17T11:02:29;14.70;99.90
3281;DHT22;1652;51.31805600;6.20194400;2024-03-17T11:05:00;14.60;1.00
3281;DHT22;1652;51.31805600;6.20194400;2024-03-17T11:07:27;14.70;1.00
3281;DHT22;1652;51.31805600;6.20194400;2024-03-17T11:09:55;14.60;1.00
3281;DHT22;1652;51.31805600;6.20194400;2024-03-17T11:12:44;14.50;1.00
3281;DHT22;1652;51.31805600;6.20194400;2024-03-17T11:17:49;14.40;1.00
3281;DHT22;1652;51.31805600;6.20194400;2024-03-17T11:20:26;14.50;1.00
3281;DHT22;1652;51.31805600;6.20194400;2024-03-17T11:22:58;14.40;1.00
3281;DHT22;1652;51.31805600;6.20194400;2024-03-17T11:28:00;14.50;1.00
3281;DHT22;1652;51.31805600;6.20194400;2024-03-17T11:38:54;14.70;1.00
3281;DHT22;1652;51.31805600;6.20194400;2024-03-17T11:41:40;14.60;1.00
3281;DHT22;1652;51.31805600;6.20194400;2024-03-17T11:47:00;14.90;1.00
3281;DHT22;1652;51.31805600;6.20194400;2024-03-17T11:49:39;15.10;1.00
3281;DHT22;1652;51.31805600;6.20194400;2024-03-17T11:52:10;15.20;1.00
3281;DHT22;1652;51.31805600;6.20194400;2024-03-17T11:54:44;15.10;1.00
3281;DHT22;1652;51.31805600;6.20194400;2024-03-17T11:57:14;15.10;1.00
3281;DHT22;1652;51.31805600;6.20194400;2024-03-17T11:59:46;15.10;1.00
3281;DHT22;1652;51.31805600;6.20194400;2024-03-17T12:02:16;15.10;1.00
3281;DHT22;1652;51.31805600;6.20194400;2024-03-17T12:04:43;15.00;1.00
3281;DHT22;1652;51.31805600;6.20194400;2024-03-17T12:07:14;15.00;1.00
3281;DHT22;1652;51.31805600;6.20194400;2024-03-17T12:09:45;15.00;1.00
3281;DHT22;1652;51.31805600;6.20194400;2024-03-17T12:12:22;14.80;1.00
3281;DHT22;1652;51.31805600;6.20194400;2024-03-17T12:14:49;14.90;1.00
3281;DHT22;1652;51.31805600;6.20194400;2024-03-17T12:17:21;15.10;1.00
3281;DHT22;1652;51.31805600;6.20194400;2024-03-17T12:19:47;15.30;1.00
3281;DHT22;1652;51.31805600;6.20194400;2024-03-17T12:22:21;15.20;1.00
3281;DHT22;1652;51.31805600;6.20194400;2024-03-17T12:24:51;15.10;1.00
3281;DHT22;1652;51.31805600;6.20194400;2024-03-17T12:27:19;15.00;1.00
3281;DHT22;1652;51.31805600;6.20194400;2024-03-17T12:29:48;15.00;1.00
3281;DHT22;1652;51.31805600;6.20194400;2024-03-17T12:32:19;15.00;1.00
3281;DHT22;1652;51.31805600;6.20194400;2024-03-17T12:34:51;15.10;1.00
3281;DHT22;1652;51.31805600;6.20194400;2024-03-17T12:39:44;15.30;1.00
3281;DHT22;1652;51.31805600;6.20194400;2024-03-17T12:42:14;15.10;1.00
3281;DHT22;1652;51.31805600;6.20194400;2024-03-17T12:45:01;15.10;1.00
3281;DHT22;1652;51.31805600;6.20194400;2024-03-17T12:47:30;15.10;1.00
3281;DHT22;1652;51.31805600;6.20194400;2024-03-17T12:50:00;15.10;1.00
3281;DHT22;1652;51.31805600;6.20194400;2024-03-17T12:52:27;14.90;1.00
3281;DHT22;1652;51.31805600;6.20194400;2024-03-17T12:57:43;14.80;1.00
3281;DHT22;1652;51.31805600;6.20194400;2024-03-17T13:00:28;14.90;1.00
3281;DHT22;1652;51.31805600;6.20194400;2024-03-17T13:03:03;14.90;1.00
3281;DHT22;1652;51.31805600;6.20194400;2024-03-17T13:05:30;14.90;1.00
3281;DHT22;1652;51.31805600;6.20194400;2024-03-17T13:07:57;14.90;1.00
3281;DHT22;1652;51.31805600;6.20194400;2024-03-17T13:10:27;14.90;1.00
3281;DHT22;1652;51.31805600;6.20194400;2024-03-17T13:13:08;14.90;1.00
3281;DHT22;1652;51.31805600;6.20194400;2024-03-17T13:15:34;15.00;1.00
3281;DHT22;1652;51.31805600;6.20194400;2024-03-17T13:18:04;15.00;1.00
3281;DHT22;1652;51.31805600;6.20194400;2024-03-17T13:20:31;15.10;1.00
3281;DHT22;1652;51.31805600;6.20194400;2024-03-17T13:22:58;15.00;1.00
3281;DHT22;1652;51.31805600;6.20194400;2024-03-17T13:25:26;14.90;1.00
3281;DHT22;1652;51.31805600;6.20194400;2024-03-17T13:27:55;14.90;1.00
3281;DHT22;1652;51.31805600;6.20194400;2024-03-17T13:30:22;14.70;1.00
3281;DHT22;1652;51.31805600;6.20194400;2024-03-17T13:32:53;14.70;1.00
3281;DHT22;1652;51.31805600;6.20194400;2024-03-17T13:35:28;14.70;1.00
3281;DHT22;1652;51.31805600;6.20194400;2024-03-17T13:37:57;14.70;1.00
3281;DHT22;1652;51.31805600;6.20194400;2024-03-17T13:40:27;14.70;1.00
3281;DHT22;1652;51.31805600;6.20194400;2024-03-17T13:42:57;14.70;1.00
3281;DHT22;1652;51.31805600;6.20194400;2024-03-17T13:45:28;14.70;1.00
3281;DHT22;1652;51.31805600;6.20194400;2024-03-17T13:48:01;14.70;1.00
3281;DHT22;1652;51.31805600;6.20194400;2024-03-17T13:50:27;14.80;1.00
3281;DHT22;1652;51.31805600;6.20194400;2024-03-17T13:52:53;14.80;1.00
3281;DHT22;1652;51.31805600;6.20194400;2024-03-17T13:55:21;14.70;1.00
3281;DHT22;1652;51.31805600;6.20194400;2024-03-17T13:57:50;14.90;1.00
3281;DHT22;1652;51.31805600;6.20194400;2024-03-17T14:00:17;14.90;1.00
3281;DHT22;1652;51.31805600;6.20194400;2024-03-17T14:02:49;15.00;1.00
3281;DHT22;1652;51.31805600;6.20194400;2024-03-17T14:05:19;15.10;1.00
3281;DHT22;1652;51.31805600;6.20194400;2024-03-17T14:07:46;15.30;1.00
3281;DHT22;1652;51.31805600;6.20194400;2024-03-17T14:10:15;15.30;1.00
3281;DHT22;1652;51.31805600;6.20194400;2024-03-17T14:12:42;15.40;1.00
3281;DHT22;1652;51.31805600;6.20194400;2024-03-17T14:15:09;15.40;1.00
3281;DHT22;1652;51.31805600;6.20194400;2024-03-17T14:17:43;15.50;1.00
3281;DHT22;1652;51.31805600;6.20194400;2024-03-17T14:20:10;15.60;1.00
3281;DHT22;1652;51.31805600;6.20194400;2024-03-17T14:22:41;15.80;1.00
3281;DHT22;1652;51.31805600;6.20194400;2024-03-17T14:25:17;15.70;1.00
3281;DHT22;1652;51.31805600;6.20194400;2024-03-17T14:27:47;15.70;1.00
3281;DHT22;1652;51.31805600;6.20194400;2024-03-17T14:30:16;16.00;1.00
3281;DHT22;1652;51.31805600;6.20194400;2024-03-17T14:32:42;16.00;1.00
3281;DHT22;1652;51.31805600;6.20194400;2024-03-17T14:35:16;16.10;1.00
3281;DHT22;1652;51.31805600;6.20194400;2024-03-17T14:37:45;16.00;1.00
3281;DHT22;1652;51.31805600;6.20194400;2024-03-17T14:40:15;16.00;1.00